Time;durP1;ratioP1;P1;durP2;ratioP2;P2;SDS_P1;SDS_P2;PMS_P1;PMS_P2;Temp;Humidity;BMP_temperature;BMP_pressure;BME280_temperature;BME280_humidity;BME280_pressure;Samples;Min_cycle;Max_cycle;Signal;HPM_P1;HPM_P2
2023/03/18 00:00:42;;;;;;;2.67;1.48;;;13.00;99.90;;;;;;7384551;19;20130;-76
2023/03/18 00:03:09;;;;;;;3.45;1.30;;;13.00;99.90;;;;;;7386942;19;20162;-77
2023/03/18 00:05:35;;;;;;;3.05;1.10;;;13.10;99.90;;;;;;7388238;19;20130;-76
2023/03/18 00:08:03;;;;;;;4.72;1.27;;;13.10;99.90;;;;;;7385810;19;20142;-76
2023/03/18 00:10:33;;;;;;;2.85;1.20;;;13.10;99.90;;;;;;7388184;19;20142;-77
2023/03/18 00:13:03;;;;;;;4.10;1.60;;;13.10;99.90;;;;;;7383789;19;20135;-76
2023/03/18 00:15:29;;;;;;;3.13;1.40;;;13.20;99.90;;;;;;7391339;19;20628;-75
2023/03/18 00:17:58;;;;;;;2.25;1.50;;;13.20;99.90;;;;;;7392350;19;20163;-76
2023/03/18 00:20:37;;;;;;;5.32;1.45;;;13.20;99.90;;;;;;7393465;19;20154;-76
2023/03/18 00:23:04;;;;;;;2.83;1.48;;;13.20;99.90;;;;;;7393687;19;20452;-76
2023/03/18 00:25:30;;;;;;;4.53;1.20;;;13.20;99.90;;;;;;7393209;19;20633;-76
2023/03/18 00:27:56;;;;;;;4.05;1.65;;;12.90;99.90;;;;;;7393884;19;20277;-76
2023/03/18 00:30:22;;;;;;;4.60;1.50;;;12.80;99.90;;;;;;7389594;19;20243;-77
2023/03/18 00:32:48;;;;;;;3.20;1.50;;;12.70;99.90;;;;;;7389358;19;20150;-77
2023/03/18 00:35:18;;;;;;;2.72;1.40;;;12.70;99.90;;;;;;7388954;19;20154;-77
2023/03/18 00:37:44;;;;;;;1.30;1.20;;;12.80;99.90;;;;;;7389421;19;20146;-77
2023/03/18 00:40:16;;;;;;;3.17;1.40;;;12.80;99.90;;;;;;7391609;19;20141;-76
2023/03/18 00:42:46;;;;;;;2.17;1.35;;;12.90;99.90;;;;;;7389889;19;20568;-76
2023/03/18 00:45:15;;;;;;;2.65;1.60;;;12.90;99.90;;;;;;7392253;19;20131;-77
2023/03/18 00:47:47;;;;;;;3.72;1.50;;;13.00;99.90;;;;;;7392753;19;20155;-75
2023/03/18 00:50:13;;;;;;;5.25;1.40;;;13.00;99.90;;;;;;7392625;19;20811;-76
2023/03/18 00:52:39;;;;;;;2.05;1.20;;;13.00;99.90;;;;;;7392135;19;20223;-77
2023/03/18 00:55:05;;;;;;;3.17;1.40;;;13.00;99.90;;;;;;7389885;19;20150;-77
2023/03/18 00:57:32;;;;;;;3.08;1.23;;;13.00;99.90;;;;;;7393924;19;20605;-76
2023/03/18 01:00:01;;;;;;;1.83;1.10;;;12.90;99.90;;;;;;7390394;19;20514;-77
2023/03/18 01:02:28;;;;;;;2.13;1.33;;;13.00;99.90;;;;;;7392009;19;20156;-77
2023/03/18 01:04:54;;;;;;;1.98;1.35;;;12.90;99.90;;;;;;7388014;19;20509;-76
2023/03/18 01:07:20;;;;;;;2.90;1.40;;;12.90;99.90;;;;;;7387360;19;20134;-76
2023/03/18 01:09:46;;;;;;;2.55;1.35;;;12.90;99.90;;;;;;7387361;19;20162;-76
2023/03/18 01:12:12;;;;;;;1.70;1.13;;;12.90;99.90;;;;;;7387682;19;20138;-76
2023/03/18 01:14:39;;;;;;;3.08;1.65;;;12.90;99.90;;;;;;7391547;19;20575;-76
2023/03/18 01:17:07;;;;;;;2.58;1.30;;;12.90;99.90;;;;;;7391705;19;20142;-75
2023/03/18 01:19:33;;;;;;;2.40;1.40;;;12.90;99.90;;;;;;7389068;19;20161;-76
2023/03/18 01:21:59;;;;;;;2.88;1.02;;;12.90;99.90;;;;;;7390230;19;20138;-76
2023/03/18 01:24:26;;;;;;;3.60;1.55;;;12.90;99.90;;;;;;7388781;19;20151;-76
2023/03/18 01:26:52;;;;;;;2.75;1.60;;;12.90;99.90;;;;;;7391191;19;20143;-76
2023/03/18 01:29:21;;;;;;;2.53;1.58;;;13.00;99.90;;;;;;7389586;19;20503;-76
2023/03/18 01:31:48;;;;;;;3.53;1.50;;;13.00;99.90;;;;;;7389426;19;20194;-77
2023/03/18 01:34:15;;;;;;;3.92;1.48;;;12.60;99.90;;;;;;7390840;19;20218;-76
2023/03/18 01:36:41;;;;;;;4.10;1.77;;;12.70;99.90;;;;;;7390948;19;20161;-76
2023/03/18 01:39:06;;;;;;;2.72;1.52;;;12.70;99.90;;;;;;7385447;19;20143;-76
2023/03/18 01:41:32;;;;;;;1.88;1.63;;;12.80;99.90;;;;;;7389607;19;20154;-76
2023/03/18 01:44:01;;;;;;;5.22;1.27;;;12.80;99.90;;;;;;7385164;19;20563;-75
2023/03/18 01:46:29;;;;;;;2.90;1.65;;;12.70;99.90;;;;;;7389823;19;20142;-75
2023/03/18 01:48:56;;;;;;;1.83;1.20;;;12.70;99.90;;;;;;7390964;19;20160;-76
2023/03/18 01:51:25;;;;;;;1.98;1.40;;;12.60;99.90;;;;;;7391473;19;20155;-76
2023/03/18 01:53:56;;;;;;;1.70;1.13;;;12.40;99.90;;;;;;7387327;19;20135;-77
2023/03/18 01:56:22;;;;;;;1.30;1.13;;;12.40;99.90;;;;;;7390592;19;20162;-76
2023/03/18 01:58:52;;;;;;;1.80;1.10;;;12.40;99.90;;;;;;7389443;19;20143;-76
2023/03/18 02:01:33;;;;;;;1.95;1.42;;;12.40;99.90;;;;;;7389660;19;20163;-76
2023/03/18 02:04:01;;;;;;;1.85;1.30;;;12.60;99.90;;;;;;7387689;19;20174;-76
2023/03/18 02:06:28;;;;;;;2.22;1.40;;;12.70;99.90;;;;;;7389968;19;20167;-76
2023/03/18 02:08:54;;;;;;;2.00;1.15;;;12.90;99.90;;;;;;7389320;19;20242;-77
2023/03/18 02:11:22;;;;;;;2.67;1.52;;;12.80;99.90;;;;;;7383408;19;20146;-76
2023/03/18 02:13:48;;;;;;;2.40;1.30;;;12.90;99.90;;;;;;7391383;19;20170;-75
2023/03/18 02:16:27;;;;;;;2.17;1.33;;;12.90;99.90;;;;;;7390073;19;20487;-77
2023/03/18 02:18:58;;;;;;;2.35;1.27;;;12.70;99.90;;;;;;7389805;19;20139;-76
2023/03/18 02:21:45;;;;;;;2.28;1.38;;;12.80;99.90;;;;;;7388493;19;20138;-76
2023/03/18 02:24:52;;;;;;;2.22;1.13;;;12.60;99.90;;;;;;7390963;19;20146;-76
2023/03/18 02:27:30;;;;;;;2.85;0.90;;;12.80;99.90;;;;;;7390775;19;20145;-76
2023/03/18 02:30:01;;;;;;;1.58;1.20;;;12.80;99.90;;;;;;7387877;19;20233;-76
2023/03/18 02:32:30;;;;;;;1.50;1.13;;;12.70;99.90;;;;;;7389003;19;20146;-77
2023/03/18 02:35:00;;;;;;;5.18;1.13;;;12.70;99.90;;;;;;7388571;19;20143;-77
2023/03/18 02:37:25;;;;;;;1.88;1.30;;;12.70;99.90;;;;;;7387366;19;20149;-77
2023/03/18 02:39:53;;;;;;;3.67;1.45;;;12.70;99.90;;;;;;7388749;19;20147;-77
2023/03/18 02:42:30;;;;;;;2.28;1.23;;;12.80;99.90;;;;;;7387887;19;20282;-76
2023/03/18 02:44:57;;;;;;;1.83;1.10;;;12.80;99.90;;;;;;7388037;19;20557;-76
2023/03/18 02:47:25;;;;;;;3.08;1.08;;;12.70;99.90;;;;;;7390054;19;20185;-77
2023/03/18 02:49:52;;;;;;;1.33;0.88;;;12.80;99.90;;;;;;7387050;19;20138;-76
2023/03/18 02:52:20;;;;;;;1.38;0.88;;;12.90;99.90;;;;;;7388296;19;20158;-76
2023/03/18 02:54:46;;;;;;;2.13;1.55;;;12.70;99.90;;;;;;7388091;19;20150;-77
2023/03/18 02:57:12;;;;;;;2.10;1.33;;;12.90;99.90;;;;;;7390677;19;20143;-77
2023/03/18 02:59:37;;;;;;;2.53;1.23;;;13.00;99.90;;;;;;7387914;19;20247;-77
2023/03/18 03:02:03;;;;;;;1.08;0.93;;;12.70;99.90;;;;;;7386022;19;20150;-75
2023/03/18 03:04:29;;;;;;;2.28;1.10;;;12.60;99.90;;;;;;7385907;19;20157;-76
2023/03/18 03:06:55;;;;;;;1.95;1.00;;;12.60;99.90;;;;;;7383706;19;20134;-77
2023/03/18 03:09:21;;;;;;;2.58;1.20;;;12.70;99.90;;;;;;7384732;19;20147;-77
2023/03/18 03:11:47;;;;;;;2.35;1.27;;;12.80;99.90;;;;;;7386469;19;20143;-76
2023/03/18 03:14:15;;;;;;;1.77;0.80;;;12.60;99.90;;;;;;7389443;19;20141;-76
2023/03/18 03:16:42;;;;;;;1.63;1.08;;;12.60;99.90;;;;;;7388615;19;20151;-76
2023/03/18 03:19:08;;;;;;;2.25;1.15;;;12.50;99.90;;;;;;7387221;19;20150;-75
2023/03/18 03:21:34;;;;;;;1.65;0.98;;;12.50;99.90;;;;;;7389118;19;20150;-77
2023/03/18 03:24:02;;;;;;;1.20;0.90;;;12.50;99.90;;;;;;7386560;19;20157;-76
2023/03/18 03:26:29;;;;;;;3.00;1.45;;;12.60;99.90;;;;;;7387907;19;20177;-75
2023/03/18 03:28:55;;;;;;;3.00;1.45;;;12.70;99.90;;;;;;7388186;19;20138;-76
2023/03/18 03:31:22;;;;;;;2.80;0.95;;;12.60;99.90;;;;;;7387300;19;20174;-76
2023/03/18 03:33:48;;;;;;;3.03;1.10;;;12.40;99.90;;;;;;7386924;19;20506;-76
2023/03/18 03:36:15;;;;;;;3.08;1.00;;;12.30;99.90;;;;;;7386735;19;20202;-77
2023/03/18 03:38:42;;;;;;;1.77;1.05;;;12.30;99.90;;;;;;7386998;19;20155;-77
2023/03/18 03:41:09;;;;;;;4.57;1.48;;;12.30;99.90;;;;;;7386736;19;20139;-77
2023/03/18 03:43:39;;;;;;;2.45;0.95;;;12.40;99.90;;;;;;7386296;19;20154;-77
2023/03/18 03:46:06;;;;;;;2.08;1.27;;;12.30;99.90;;;;;;7385241;19;20282;-78
2023/03/18 03:48:32;;;;;;;2.20;1.30;;;12.30;99.90;;;;;;7386368;19;20134;-76
2023/03/18 03:50:57;;;;;;;1.95;1.00;;;12.20;99.90;;;;;;7392386;19;20159;-77
2023/03/18 03:53:25;;;;;;;2.90;1.35;;;12.20;99.90;;;;;;7390772;19;20130;-77
2023/03/18 03:55:52;;;;;;;3.85;1.27;;;12.10;99.90;;;;;;7393659;19;20150;-76
2023/03/18 03:58:18;;;;;;;1.50;1.02;;;12.00;99.90;;;;;;7394890;19;20134;-76
2023/03/18 04:00:44;;;;;;;5.20;0.98;;;11.90;99.90;;;;;;7394505;19;20134;-76
2023/03/18 04:03:11;;;;;;;2.40;1.10;;;12.00;99.90;;;;;;7391684;19;20154;-76
2023/03/18 04:05:38;;;;;;;1.50;0.82;;;12.10;99.90;;;;;;7393669;19;20175;-76
2023/03/18 04:08:04;;;;;;;0.73;0.70;;;12.30;99.90;;;;;;7394422;19;20170;-76
2023/03/18 04:10:30;;;;;;;1.50;1.10;;;12.40;99.90;;;;;;7393698;19;20200;-76
2023/03/18 04:12:56;;;;;;;1.48;0.95;;;12.40;99.90;;;;;;7391113;19;20142;-76
2023/03/18 04:15:22;;;;;;;3.30;1.20;;;12.40;99.90;;;;;;7394095;19;20154;-77
2023/03/18 04:17:49;;;;;;;2.63;1.40;;;12.50;99.90;;;;;;7395713;19;20154;-77
2023/03/18 04:20:16;;;;;;;5.13;1.30;;;12.60;99.90;;;;;;7393317;19;20139;-76
2023/03/18 04:22:42;;;;;;;4.65;2.42;;;12.60;99.90;;;;;;7393140;19;20142;-77
2023/03/18 04:25:10;;;;;;;3.80;2.10;;;12.70;99.90;;;;;;7394849;19;20155;-77
2023/03/18 04:27:36;;;;;;;5.53;2.35;;;12.70;99.90;;;;;;7391333;19;20150;-76
2023/03/18 04:30:05;;;;;;;4.00;1.90;;;12.50;99.90;;;;;;7393824;19;20563;-77
2023/03/18 04:32:30;;;;;;;4.28;1.73;;;12.30;99.90;;;;;;7391355;19;20155;-77
2023/03/18 04:34:59;;;;;;;4.80;2.17;;;12.20;99.90;;;;;;7392410;19;20479;-77
2023/03/18 04:37:25;;;;;;;4.23;1.37;;;12.20;99.90;;;;;;7392412;19;20161;-76
2023/03/18 04:39:51;;;;;;;2.22;1.50;;;12.20;99.90;;;;;;7392245;19;20167;-76
2023/03/18 04:42:17;;;;;;;4.10;1.70;;;12.10;99.90;;;;;;7390289;19;20150;-77
2023/03/18 04:44:44;;;;;;;3.63;1.33;;;12.00;99.90;;;;;;7390873;19;20142;-77
2023/03/18 04:47:12;;;;;;;2.13;1.13;;;12.00;99.90;;;;;;7390957;19;20302;-77
2023/03/18 04:49:38;;;;;;;2.10;1.23;;;12.10;99.90;;;;;;7394977;19;20134;-77
2023/03/18 04:52:06;;;;;;;2.42;1.50;;;12.10;99.90;;;;;;7390721;19;20170;-77
2023/03/18 04:54:32;;;;;;;1.63;1.10;;;12.10;99.90;;;;;;7390724;19;20210;-76
2023/03/18 04:56:58;;;;;;;1.88;1.40;;;11.80;99.90;;;;;;7391312;19;20150;-75
2023/03/18 04:59:25;;;;;;;1.48;1.00;;;11.70;99.90;;;;;;7393288;19;20142;-77
2023/03/18 05:01:50;;;;;;;2.25;1.08;;;11.70;99.90;;;;;;7389835;19;20520;-78
2023/03/18 05:04:16;;;;;;;3.70;1.00;;;11.60;99.90;;;;;;7389485;19;20157;-76
2023/03/18 05:06:42;;;;;;;1.13;1.00;;;11.70;99.90;;;;;;7390655;19;20160;-77
2023/03/18 05:09:08;;;;;;;1.95;1.10;;;11.80;99.90;;;;;;7392062;19;20218;-76
2023/03/18 05:11:34;;;;;;;3.40;1.93;;;11.80;99.90;;;;;;7390910;19;20156;-76
2023/03/18 05:14:00;;;;;;;2.88;1.88;;;11.90;99.90;;;;;;7389224;19;20202;-75
2023/03/18 05:16:26;;;;;;;2.83;1.70;;;11.90;99.90;;;;;;7391117;19;20498;-76
2023/03/18 05:18:51;;;;;;;2.65;1.52;;;11.80;99.90;;;;;;7390278;19;20150;-76
2023/03/18 05:21:17;;;;;;;3.17;1.60;;;11.80;99.90;;;;;;7391447;19;20174;-75
2023/03/18 05:23:43;;;;;;;5.03;1.42;;;11.80;99.90;;;;;;7389705;19;20175;-76
2023/03/18 05:26:10;;;;;;;3.97;1.27;;;11.70;99.90;;;;;;7391180;19;20143;-76
2023/03/18 05:28:37;;;;;;;3.25;1.30;;;11.70;99.90;;;;;;7391907;19;20135;-77
2023/03/18 05:31:04;;;;;;;3.53;1.50;;;11.40;99.90;;;;;;7391607;19;20158;-76
2023/03/18 05:33:31;;;;;;;2.55;1.30;;;11.20;99.90;;;;;;7388599;19;20250;-76
2023/03/18 05:35:57;;;;;;;3.45;1.65;;;11.20;99.90;;;;;;7394110;19;20166;-76
2023/03/18 05:38:24;;;;;;;2.63;1.47;;;11.30;99.90;;;;;;7390304;19;20905;-76
2023/03/18 05:40:51;;;;;;;2.08;1.55;;;11.40;99.90;;;;;;7390924;19;20169;-76
2023/03/18 05:43:17;;;;;;;5.43;2.50;;;11.70;99.90;;;;;;7391443;19;20178;-77
2023/03/18 05:45:43;;;;;;;3.65;1.80;;;11.70;99.90;;;;;;7391900;19;20134;-77
2023/03/18 05:48:09;;;;;;;4.47;2.30;;;11.70;99.90;;;;;;7388706;19;20614;-77
2023/03/18 05:50:42;;;;;;;5.57;2.23;;;11.70;99.90;;;;;;7389643;19;20150;-77
2023/03/18 05:53:10;;;;;;;5.38;2.53;;;11.70;99.90;;;;;;7388834;19;20154;-77
2023/03/18 05:55:38;;;;;;;3.27;2.50;;;11.60;99.90;;;;;;7391415;19;20158;-76
2023/03/18 05:58:05;;;;;;;5.10;2.70;;;11.60;99.90;;;;;;7388232;19;20166;-77
2023/03/18 06:00:31;;;;;;;5.65;2.58;;;11.50;99.90;;;;;;7392009;19;20162;-77
2023/03/18 06:02:58;;;;;;;3.63;2.60;;;11.60;99.90;;;;;;7387341;19;20462;-77
2023/03/18 06:05:25;;;;;;;3.57;2.30;;;11.60;99.90;;;;;;7389849;19;20154;-77
2023/03/18 06:07:52;;;;;;;4.10;2.53;;;11.60;99.90;;;;;;7388784;19;20146;-77
2023/03/18 06:10:18;;;;;;;6.97;3.43;;;11.70;99.90;;;;;;7389900;19;20162;-77
2023/03/18 06:12:44;;;;;;;4.23;2.67;;;11.50;99.90;;;;;;7379000;19;20603;-76
2023/03/18 06:15:14;;;;;;;6.50;2.73;;;11.30;99.90;;;;;;7391818;19;20138;-77
2023/03/18 06:17:40;;;;;;;4.33;2.70;;;11.30;99.90;;;;;;7393940;19;20127;-80
2023/03/18 06:20:08;;;;;;;5.77;2.80;;;11.30;99.90;;;;;;7388019;19;20159;-78
2023/03/18 06:22:34;;;;;;;5.47;3.03;;;11.30;99.90;;;;;;7387136;19;20486;-76
2023/03/18 06:25:01;;;;;;;4.17;3.03;;;11.40;99.90;;;;;;7390797;19;20502;-77
2023/03/18 06:27:27;;;;;;;6.10;2.80;;;11.40;99.90;;;;;;7389633;19;20139;-77
2023/03/18 06:29:53;;;;;;;4.57;2.70;;;11.40;99.90;;;;;;7388680;19;20135;-76
2023/03/18 06:32:18;;;;;;;7.78;2.70;;;11.40;99.90;;;;;;7385723;19;20151;-76
2023/03/18 06:34:44;;;;;;;5.88;2.90;;;11.30;99.90;;;;;;7389554;19;20470;-78
2023/03/18 06:37:11;;;;;;;9.95;2.83;;;11.50;99.90;;;;;;7388541;19;20188;-76
2023/03/18 06:39:37;;;;;;;6.97;2.93;;;11.40;99.90;;;;;;7385693;19;20150;-77
2023/03/18 06:42:02;;;;;;;5.23;3.27;;;11.40;99.90;;;;;;7386184;19;20138;-76
2023/03/18 06:44:28;;;;;;;7.13;3.10;;;11.40;99.90;;;;;;7389069;19;20161;-76
2023/03/18 06:46:55;;;;;;;5.67;3.07;;;11.30;99.90;;;;;;7386366;19;20259;-76
2023/03/18 06:49:20;;;;;;;5.15;3.33;;;11.30;99.90;;;;;;7387704;19;20151;-76
2023/03/18 06:51:47;;;;;;;4.73;3.37;;;11.30;99.90;;;;;;7386497;19;20166;-77
2023/03/18 06:54:13;;;;;;;4.30;3.00;;;11.40;99.90;;;;;;7387455;19;20150;-77
2023/03/18 06:56:40;;;;;;;6.03;2.97;;;11.50;99.90;;;;;;7387888;19;20567;-76
2023/03/18 06:59:08;;;;;;;4.50;3.37;;;11.20;99.90;;;;;;7386011;19;20557;-75
2023/03/18 07:01:35;;;;;;;4.50;3.20;;;11.20;99.90;;;;;;7387263;19;20162;-76
2023/03/18 07:04:02;;;;;;;7.03;3.83;;;11.20;99.90;;;;;;7386306;19;20152;-75
2023/03/18 07:06:29;;;;;;;6.18;3.45;;;11.20;99.90;;;;;;7386835;19;20177;-76
2023/03/18 07:09:00;;;;;;;6.33;3.53;;;11.40;99.90;;;;;;7383006;19;20178;-76
2023/03/18 07:11:26;;;;;;;6.63;3.70;;;11.40;99.90;;;;;;7386766;19;20158;-75
2023/03/18 07:13:52;;;;;;;5.00;3.15;;;11.40;99.90;;;;;;7387462;19;20162;-75
2023/03/18 07:16:19;;;;;;;6.97;3.38;;;11.40;99.90;;;;;;7385287;19;20143;-77
2023/03/18 07:18:46;;;;;;;6.83;3.90;;;11.40;99.90;;;;;;7385754;19;20150;-76
2023/03/18 07:21:12;;;;;;;4.67;3.10;;;11.40;99.90;;;;;;7386570;19;20770;-78
2023/03/18 07:23:39;;;;;;;4.03;3.07;;;11.30;99.90;;;;;;7391739;19;20127;-77
2023/03/18 07:26:06;;;;;;;6.50;3.40;;;11.40;99.90;;;;;;7387481;19;20142;-76
2023/03/18 07:28:31;;;;;;;6.30;3.40;;;11.30;99.90;;;;;;7385841;19;20166;-76
2023/03/18 07:30:57;;;;;;;4.90;3.42;;;11.40;99.90;;;;;;7385612;19;20452;-76
2023/03/18 07:33:23;;;;;;;4.70;3.23;;;11.50;99.90;;;;;;7385063;19;20154;-78
2023/03/18 07:35:49;;;;;;;5.13;2.97;;;11.60;99.90;;;;;;7390196;19;20134;-75
2023/03/18 07:38:17;;;;;;;5.43;3.00;;;11.70;99.90;;;;;;7386961;19;20151;-77
2023/03/18 07:40:42;;;;;;;5.47;4.15;;;11.50;99.90;;;;;;7386400;19;20138;-76
2023/03/18 07:43:08;;;;;;;5.20;2.93;;;11.40;99.90;;;;;;7385821;19;20157;-77
2023/03/18 07:45:34;;;;;;;5.15;3.40;;;11.30;99.90;;;;;;7384043;19;20165;-77
2023/03/18 07:48:00;;;;;;;6.40;3.33;;;11.10;99.90;;;;;;7385217;19;20202;-76
2023/03/18 07:50:26;;;;;;;5.85;3.28;;;11.10;99.90;;;;;;7384818;19;20135;-76
2023/03/18 07:52:52;;;;;;;5.68;3.92;;;11.50;99.90;;;;;;7383403;19;20154;-75
2023/03/18 07:55:19;;;;;;;4.80;2.73;;;11.80;99.90;;;;;;7385227;19;20134;-77
2023/03/18 07:57:44;;;;;;;6.25;3.03;;;12.00;99.90;;;;;;7385838;19;20139;-78
2023/03/18 08:00:12;;;;;;;7.53;2.80;;;12.20;99.90;;;;;;7383551;19;20138;-76
2023/03/18 08:02:39;;;;;;;5.28;2.10;;;12.30;99.90;;;;;;7387668;19;20183;-75
2023/03/18 08:05:08;;;;;;;3.53;2.50;;;12.20;99.90;;;;;;7385112;19;20163;-78
2023/03/18 08:07:35;;;;;;;7.15;2.75;;;11.90;99.90;;;;;;7383778;19;20213;-76
2023/03/18 08:10:03;;;;;;;4.15;2.50;;;11.80;99.90;;;;;;7385166;19;20131;-78
2023/03/18 08:12:28;;;;;;;5.32;2.13;;;11.80;99.90;;;;;;7382696;19;20667;-77
2023/03/18 08:14:55;;;;;;;4.68;2.28;;;12.00;99.90;;;;;;7384850;19;20145;-76
2023/03/18 08:17:20;;;;;;;4.65;2.40;;;12.10;99.90;;;;;;7384210;19;20155;-76
2023/03/18 08:19:47;;;;;;;6.00;2.30;;;12.20;99.90;;;;;;7387061;19;20147;-76
2023/03/18 08:22:14;;;;;;;4.03;2.30;;;12.30;99.90;;;;;;7384784;19;20155;-77
2023/03/18 08:24:40;;;;;;;4.18;2.53;;;12.60;99.90;;;;;;7385196;19;20444;-75
2023/03/18 08:27:06;;;;;;;3.45;2.13;;;12.60;99.90;;;;;;7386753;19;20352;-79
2023/03/18 08:29:32;;;;;;;4.32;2.03;;;12.60;99.90;;;;;;7386936;19;20135;-80
2023/03/18 08:31:58;;;;;;;5.50;2.10;;;12.60;99.90;;;;;;7386280;19;20135;-85
2023/03/18 08:34:29;;;;;;;2.60;1.90;;;12.70;99.90;;;;;;7388899;19;20494;-87
2023/03/18 08:36:55;;;;;;;5.00;2.20;;;13.10;99.90;;;;;;7398282;19;20138;-84
2023/03/18 08:39:25;;;;;;;3.42;2.08;;;13.20;99.90;;;;;;7397143;19;20248;-85
2023/03/18 08:41:55;;;;;;;2.70;1.77;;;13.10;99.90;;;;;;7399319;19;20210;-87
2023/03/18 08:44:21;;;;;;;5.90;2.40;;;13.00;99.90;;;;;;7398717;19;20198;-87
2023/03/18 08:46:46;;;;;;;2.85;1.60;;;13.10;99.90;;;;;;7394662;19;20147;-83
2023/03/18 08:49:13;;;;;;;3.80;2.30;;;13.60;99.90;;;;;;7396614;19;20986;-84
2023/03/18 08:51:39;;;;;;;3.08;1.98;;;13.80;99.90;;;;;;7396920;19;20468;-82
2023/03/18 08:54:07;;;;;;;2.25;1.70;;;14.30;99.90;;;;;;7395474;19;20149;-85
2023/03/18 08:56:33;;;;;;;4.13;2.15;;;14.40;99.90;;;;;;7398027;19;20615;-82
2023/03/18 08:58:59;;;;;;;4.05;1.73;;;14.70;99.90;;;;;;7394899;19;20614;-86
2023/03/18 09:01:26;;;;;;;4.97;2.22;;;14.90;99.90;;;;;;7396918;19;20249;-83
2023/03/18 09:03:55;;;;;;;8.68;3.17;;;15.00;99.90;;;;;;7399474;19;20147;-85
2023/03/18 09:06:22;;;;;;;3.30;2.10;;;15.10;99.90;;;;;;7398273;19;20218;-85
2023/03/18 09:08:47;;;;;;;2.85;1.88;;;15.30;99.90;;;;;;7395310;19;20150;-84
2023/03/18 09:11:16;;;;;;;2.97;1.83;;;15.40;99.90;;;;;;7394748;19;20511;-84
2023/03/18 09:13:47;;;;;;;4.30;1.98;;;15.50;99.90;;;;;;7400617;19;20131;-85
2023/03/18 09:16:16;;;;;;;2.88;1.80;;;15.70;99.90;;;;;;7396962;19;20154;-85
2023/03/18 09:18:41;;;;;;;3.70;2.28;;;15.80;99.90;;;;;;7394090;19;20648;-85
2023/03/18 09:21:07;;;;;;;3.42;1.73;;;15.90;99.90;;;;;;7392993;19;20127;-85
2023/03/18 09:23:33;;;;;;;5.93;2.17;;;16.00;99.90;;;;;;7392625;19;20247;-85
2023/03/18 09:26:01;;;;;;;4.70;2.20;;;16.00;99.90;;;;;;7401322;19;20154;-83
2023/03/18 09:28:33;;;;;;;3.05;2.40;;;16.10;99.90;;;;;;7399660;19;20150;-85
2023/03/18 09:30:58;;;;;;;4.25;2.45;;;16.20;99.90;;;;;;7393019;19;20138;-85
2023/03/18 09:33:25;;;;;;;3.42;1.98;;;16.30;99.90;;;;;;7391661;19;20133;-85
2023/03/18 09:35:51;;;;;;;2.85;1.90;;;16.40;99.90;;;;;;7394257;19;20144;-84
2023/03/18 09:38:18;;;;;;;7.35;1.70;;;16.50;99.90;;;;;;7392657;19;20139;-83
2023/03/18 09:41:01;;;;;;;2.58;1.55;;;16.60;99.90;;;;;;7392242;19;20242;-82
2023/03/18 09:43:51;;;;;;;4.20;1.70;;;16.70;99.90;;;;;;7389187;19;20155;-84
2023/03/18 09:46:50;;;;;;;2.47;1.63;;;16.70;99.90;;;;;;7391102;19;20131;-83
2023/03/18 09:49:16;;;;;;;4.03;1.40;;;16.70;99.90;;;;;;7391096;19;20147;-81
2023/03/18 09:52:00;;;;;;;3.40;1.80;;;16.80;99.90;;;;;;7392134;19;20130;-81
2023/03/18 09:54:47;;;;;;;3.95;1.55;;;16.80;99.90;;;;;;7389533;19;20142;-81
2023/03/18 09:57:21;;;;;;;6.18;1.95;;;16.90;99.90;;;;;;7391830;19;20149;-83
2023/03/18 09:59:53;;;;;;;5.43;1.45;;;16.90;99.90;;;;;;7392428;19;20603;-83
2023/03/18 10:02:45;;;;;;;4.93;2.80;;;17.00;99.90;;;;;;7391052;19;20159;-81
2023/03/18 10:05:17;;;;;;;4.57;3.42;;;17.10;99.40;;;;;;7389737;19;20188;-82
2023/03/18 10:07:50;;;;;;;2.78;1.45;;;17.30;99.10;;;;;;7392249;19;20167;-83
2023/03/18 10:10:28;;;;;;;1.92;1.40;;;17.60;99.10;;;;;;7386779;19;20147;-80
2023/03/18 10:13:28;;;;;;;5.13;2.38;;;17.70;98.50;;;;;;7387935;19;20155;-80
2023/03/18 10:15:56;;;;;;;2.47;1.40;;;17.70;98.70;;;;;;7391456;19;20268;-83
2023/03/18 10:18:34;;;;;;;1.77;1.27;;;17.70;98.10;;;;;;7390516;19;20134;-83
2023/03/18 10:21:18;;;;;;;3.47;1.80;;;17.60;98.20;;;;;;7391568;19;20482;-83
2023/03/18 10:23:53;;;;;;;2.65;1.17;;;17.70;98.30;;;;;;7392770;19;20617;-83
2023/03/18 10:26:49;;;;;;;2.65;1.15;;;17.70;97.90;;;;;;7392702;19;20134;-83
2023/03/18 10:29:42;;;;;;;2.28;1.23;;;17.60;97.90;;;;;;7391367;19;20147;-84
2023/03/18 10:32:23;;;;;;;2.55;1.52;;;17.60;97.80;;;;;;7391998;19;20183;-83
2023/03/18 10:35:02;;;;;;;2.60;1.23;;;17.60;97.60;;;;;;7392311;19;20598;-85
2023/03/18 10:37:48;;;;;;;1.70;1.00;;;17.60;98.50;;;;;;7404407;19;20560;-84
2023/03/18 10:40:16;;;;;;;2.35;1.55;;;17.80;97.20;;;;;;7391187;19;20603;-84
2023/03/18 10:42:42;;;;;;;2.25;1.30;;;17.90;97.30;;;;;;7391177;19;20615;-84
2023/03/18 10:45:28;;;;;;;2.13;1.40;;;18.00;96.70;;;;;;7389686;19;20496;-83
2023/03/18 10:48:23;;;;;;;2.50;1.30;;;18.00;96.30;;;;;;7390576;19;20234;-83
2023/03/18 10:51:10;;;;;;;1.83;1.30;;;18.20;96.00;;;;;;7392065;19;20171;-83
2023/03/18 10:53:46;;;;;;;4.05;1.35;;;18.40;95.60;;;;;;7390541;19;20138;-82
2023/03/18 10:56:13;;;;;;;4.93;1.50;;;18.40;96.80;;;;;;7394086;19;20562;-82
2023/03/18 10:58:40;;;;;;;2.92;1.20;;;18.40;95.00;;;;;;7398052;19;20151;-87
2023/03/18 11:01:09;;;;;;;3.53;1.63;;;18.50;94.70;;;;;;7394640;19;20603;-88
2023/03/18 11:03:44;;;;;;;3.13;1.15;;;18.40;94.70;;;;;;7392051;19;20178;-88
2023/03/18 11:06:32;;;;;;;4.15;1.33;;;18.20;94.80;;;;;;7397985;19;20205;-87
2023/03/18 11:09:10;;;;;;;3.75;0.90;;;18.20;94.60;;;;;;7397388;19;20672;-88
2023/03/18 11:11:40;;;;;;;1.25;0.75;;;18.20;95.30;;;;;;7394903;19;20140;-87
2023/03/18 11:14:12;;;;;;;1.65;0.95;;;18.30;94.20;;;;;;7395170;19;20142;-88
2023/03/18 11:16:55;;;;;;;1.73;0.73;;;18.40;94.00;;;;;;7393352;19;20127;-90
2023/03/18 11:19:47;;;;;;;1.63;0.63;;;18.70;92.60;;;;;;7392636;19;20147;-85
2023/03/18 11:22:23;;;;;;;1.52;1.05;;;18.80;92.90;;;;;;7409007;19;20368;-86
2023/03/18 11:25:18;;;;;;;1.45;0.80;;;18.90;92.10;;;;;;7389775;19;20146;-82
2023/03/18 11:27:49;;;;;;;1.75;0.93;;;19.00;91.50;;;;;;7393495;19;20249;-80
2023/03/18 11:30:27;;;;;;;1.45;0.80;;;19.00;92.50;;;;;;7395834;19;20598;-81
2023/03/18 11:33:11;;;;;;;2.35;1.10;;;19.10;92.40;;;;;;7391211;19;20146;-80
2023/03/18 11:35:43;;;;;;;1.98;0.77;;;19.10;92.20;;;;;;7390847;19;20142;-79
2023/03/18 11:38:19;;;;;;;2.50;1.00;;;19.10;91.50;;;;;;7394949;19;20138;-80
2023/03/18 11:40:45;;;;;;;2.20;1.02;;;19.20;89.40;;;;;;7396685;19;20138;-80
2023/03/18 11:43:22;;;;;;;2.38;1.30;;;19.30;87.50;;;;;;7393293;19;20146;-81
2023/03/18 11:46:04;;;;;;;1.20;0.88;;;19.30;90.00;;;;;;7394358;19;20130;-84
2023/03/18 11:48:38;;;;;;;1.33;0.85;;;19.30;87.20;;;;;;7390062;19;20162;-82
2023/03/18 11:51:21;;;;;;;4.13;0.93;;;19.40;88.90;;;;;;7389335;19;20131;-81
2023/03/18 11:54:18;;;;;;;1.88;1.15;;;19.40;89.50;;;;;;7389401;19;20139;-81
2023/03/18 11:56:48;;;;;;;2.17;1.00;;;19.40;84.50;;;;;;7388045;19;20553;-82
2023/03/18 11:59:36;;;;;;;1.83;0.90;;;19.40;84.50;;;;;;7394319;19;20137;-83
2023/03/18 12:02:34;;;;;;;1.70;0.93;;;19.50;83.70;;;;;;7394187;19;20202;-83
2023/03/18 12:05:18;;;;;;;1.70;0.70;;;19.70;83.30;;;;;;7394015;19;20179;-82
2023/03/18 12:08:30;;;;;;;4.10;2.55;;;19.70;80.60;;;;;;7387161;19;20130;-81
2023/03/18 12:11:13;;;;;;;0.93;0.80;;;19.60;81.90;;;;;;7392435;19;20150;-84
2023/03/18 12:14:04;;;;;;;1.40;0.80;;;19.50;80.00;;;;;;7385207;19;20134;-79
2023/03/18 12:16:46;;;;;;;8.82;4.15;;;19.40;80.90;;;;;;7386927;19;20150;-79
2023/03/18 12:19:14;;;;;;;4.63;2.13;;;19.40;81.20;;;;;;7394819;19;20612;-83
2023/03/18 12:22:15;;;;;;;2.28;0.90;;;19.60;81.90;;;;;;7395933;19;20158;-88
2023/03/18 12:25:17;;;;;;;2.22;0.63;;;19.60;82.10;;;;;;7399129;19;20142;-88
2023/03/18 12:28:07;;;;;;;2.00;0.77;;;19.70;81.50;;;;;;7400822;19;20214;-86
2023/03/18 12:31:01;;;;;;;1.40;0.80;;;19.90;81.90;;;;;;7399561;19;20146;-84
2023/03/18 12:33:37;;;;;;;6.43;1.13;;;20.00;81.20;;;;;;7394284;19;21852;-86
2023/03/18 12:36:22;;;;;;;2.28;0.80;;;20.00;81.20;;;;;;7402416;19;20162;-86
2023/03/18 12:39:30;;;;;;;1.95;0.65;;;20.10;82.00;;;;;;7399190;19;20927;-86
2023/03/18 12:42:37;;;;;;;1.13;0.80;;;20.30;81.50;;;;;;7396015;19;20188;-85
2023/03/18 12:45:19;;;;;;;1.70;1.13;;;20.40;80.20;;;;;;7403224;19;20604;-86
2023/03/18 12:47:58;;;;;;;3.70;0.93;;;20.40;79.60;;;;;;7401084;19;20134;-86
2023/03/18 12:50:37;;;;;;;1.90;0.70;;;20.30;79.00;;;;;;7410944;19;20626;-88
2023/03/18 12:53:22;;;;;;;3.08;1.20;;;20.30;79.80;;;;;;7400087;19;20142;-88
2023/03/18 12:55:56;;;;;;;2.35;1.20;;;20.30;78.10;;;;;;7403918;19;20134;-85
2023/03/18 12:58:27;;;;;;;1.63;0.93;;;20.40;77.90;;;;;;7407125;19;20527;-91
2023/03/18 13:01:09;;;;;;;2.13;1.00;;;20.40;78.20;;;;;;7405641;19;20505;-90
2023/03/18 13:03:39;;;;;;;1.58;0.85;;;20.40;78.10;;;;;;7400968;19;20630;-88
2023/03/18 13:06:29;;;;;;;3.28;1.10;;;20.60;78.30;;;;;;7397470;19;20193;-82